Orange8 — JL6278 — position and weather

sailwx.info

Track history (hours):
 
Tides and Currents Weather Stations Pressure Air Temp Water Temp Dewpoint Dewpoint Depression Visibility Wind Speed Wind Dir Waves Ship Positions

Orange8

Last reported at 2016-May-29 07:31 UTC. Time now 2016-May-29 09:39 UTC.
Position N 34°37' E 135°26'.

Length 164 m; draft 5 m.

Type: Passenger vessel. MMSI: 431501603.

Date/timePositionNaut miles runAvg speedWind from/ knotsBaromVisibWave heightAir tempDewpointWater temp
2016-May-29 07:31N 34°37' E 135°26'0 0.0
2016-May-29 06:31N 34°37' E 135°26'0 0.0
2016-May-29 04:31N 34°37' E 135°26'0 0.0
2016-May-29 01:31N 34°37' E 135°26'0 0.0
2016-May-29 00:31N 34°37' E 135°26'0 0.0
2016-May-28 23:19N 34°37' E 135°26'0 0.0
2016-May-28 21:19N 34°37' E 135°26'7 8.6
2016-May-28 20:33N 34°36' E 135°18'1919.0
2016-May-28 19:33N 34°36' E 134°55'4 0.1
2016-May-27 14:33N 34°38' E 134°59'1818.4
2016-May-27 13:34N 34°37' E 135°21'4 0.5
2016-May-27 05:23N 34°37' E 135°26'0 0.0
2016-May-26 23:29N 34°37' E 135°26'0 0.0
2016-May-26 21:10N 34°37' E 135°26'6 9.3
2016-May-26 20:33N 34°36' E 135°19'1818.2
2016-May-26 19:33N 34°36' E 134°57'1 0.0
2016-May-25 14:33N 34°36' E 134°56'1818.3
2016-May-25 13:33N 34°37' E 135°18'6 2.8
2016-May-25 11:20N 34°37' E 135°26'0 0.0
2016-May-25 10:32N 34°37' E 135°26'0 0.0
2016-May-25 07:14N 34°37' E 135°26'0 0.0
2016-May-25 06:32N 34°37' E 135°26'0 0.0
2016-May-25 05:32N 34°37' E 135°26'0 0.0
2016-May-25 04:32N 34°37' E 135°26'0 0.0
2016-May-25 03:32N 34°37' E 135°26'0 0.0
2016-May-25 02:20N 34°37' E 135°26'0 0.0
2016-May-25 01:20N 34°37' E 135°26'0 0.0
2016-May-24 22:08N 34°37' E 135°26'0 0.0
2016-May-24 21:20N 34°37' E 135°26'5 6.4
2016-May-24 20:33N 34°36' E 135°20'1817.6
2016-May-24 19:33N 34°37' E 134°58'13 0.4
2016-May-23 15:09N 34°33' E 134°44'1220.1
2016-May-23 14:33N 34°37' E 134°57'1818.1
2016-May-23 13:33N 34°37' E 135°19'5 4.5
2016-May-23 12:23N 34°37' E 135°26'0 0.0
2016-May-23 11:29N 34°37' E 135°26'0 0.0
2016-May-23 10:29N 34°37' E 135°26'0 0.0
2016-May-23 09:23N 34°37' E 135°26'0 0.0
2016-May-23 08:23N 34°37' E 135°26'0 0.0
2016-May-23 07:23N 34°37' E 135°26'0 0.0
2016-May-23 06:23N 34°37' E 135°26'0 0.0
2016-May-23 04:29N 34°37' E 135°26'0 0.0
2016-May-23 03:29N 34°37' E 135°26'0 0.0
2016-May-23 02:29N 34°37' E 135°26'0 0.0
2016-May-23 01:29N 34°37' E 135°26'0 0.0
2016-May-23 00:29N 34°37' E 135°26'0 0.0
2016-May-22 23:29N 34°37' E 135°26'0 0.0
2016-May-22 22:29N 34°37' E 135°26'0 0.0
2016-May-22 21:11N 34°37' E 135°26'6 8.7
2016-May-22 20:33N 34°36' E 135°19'1818.4
2016-May-22 19:33N 34°36' E 134°57'1 0.0
2016-May-21 14:33N 34°36' E 134°56'1918.8
2016-May-21 13:33N 34°36' E 135°19'6 5.8
2016-May-21 12:33N 34°37' E 135°26'0 0.0
2016-May-21 11:15N 34°37' E 135°26'0 0.0
2016-May-21 10:33N 34°37' E 135°26'0 0.0
2016-May-21 09:33N 34°37' E 135°26'0 0.0
2016-May-21 08:33N 34°37' E 135°26'0 0.0
2016-May-21 07:33N 34°37' E 135°26'0 0.0
2016-May-21 06:33N 34°37' E 135°26'0 0.0
2016-May-21 05:33N 34°37' E 135°26'0 0.0
2016-May-21 04:33N 34°37' E 135°26'0 0.0
2016-May-21 03:33N 34°37' E 135°26'0 0.0
2016-May-21 02:33N 34°37' E 135°26'0 0.0
2016-May-21 01:27N 34°37' E 135°26'0 0.0
2016-May-21 00:33N 34°37' E 135°26'0 0.0
2016-May-20 23:33N 34°37' E 135°26'0 0.0
2016-May-20 22:33N 34°37' E 135°26'0 0.0
2016-May-20 21:33N 34°37' E 135°26'6 5.7
2016-May-20 20:33N 34°36' E 135°19'1818.3
2016-May-20 19:33N 34°36' E 134°57'1 0.0
2016-May-19 14:32N 34°37' E 134°58'1818.1
2016-May-19 13:33N 34°37' E 135°19'5 4.4
2016-May-19 12:20N 34°37' E 135°26'0 0.0
2016-May-19 11:14N 34°37' E 135°26'0 0.0
2016-May-19 10:32N 34°37' E 135°26'0 0.0
2016-May-19 09:32N 34°37' E 135°26'0 0.0
2016-May-19 08:32N 34°37' E 135°26'  
Track history (hours):
 
Tides and Currents Weather Stations Pressure Air Temp Water Temp Dewpoint Dewpoint Depression Visibility Wind Speed Wind Dir Waves Ship Positions

Orange8

Last reported at 2016-May-29 07:31 UTC. Time now 2016-May-29 09:39 UTC.
Position N 34°37' E 135°26'.

Length 164 m; draft 5 m.

Type: Passenger vessel. MMSI: 431501603.

Date/timePositionNaut miles runAvg speedWind from/ knotsBaromVisibWave heightAir tempDewpointWater temp
2016-May-29 07:31N 34°37' E 135°26'0 0.0
2016-May-29 06:31N 34°37' E 135°26'0 0.0
2016-May-29 04:31N 34°37' E 135°26'0 0.0
2016-May-29 01:31N 34°37' E 135°26'0 0.0
2016-May-29 00:31N 34°37' E 135°26'0 0.0
2016-May-28 23:19N 34°37' E 135°26'0 0.0
2016-May-28 21:19N 34°37' E 135°26'7 8.6
2016-May-28 20:33N 34°36' E 135°18'1919.0
2016-May-28 19:33N 34°36' E 134°55'4 0.1
2016-May-27 14:33N 34°38' E 134°59'1818.4
2016-May-27 13:34N 34°37' E 135°21'4 0.5
2016-May-27 05:23N 34°37' E 135°26'0 0.0
2016-May-26 23:29N 34°37' E 135°26'0 0.0
2016-May-26 21:10N 34°37' E 135°26'6 9.3
2016-May-26 20:33N 34°36' E 135°19'1818.2
2016-May-26 19:33N 34°36' E 134°57'1 0.0
2016-May-25 14:33N 34°36' E 134°56'1818.3
2016-May-25 13:33N 34°37' E 135°18'6 2.8
2016-May-25 11:20N 34°37' E 135°26'0 0.0
2016-May-25 10:32N 34°37' E 135°26'0 0.0
2016-May-25 07:14N 34°37' E 135°26'0 0.0
2016-May-25 06:32N 34°37' E 135°26'0 0.0
2016-May-25 05:32N 34°37' E 135°26'0 0.0
2016-May-25 04:32N 34°37' E 135°26'0 0.0
2016-May-25 03:32N 34°37' E 135°26'0 0.0
2016-May-25 02:20N 34°37' E 135°26'0 0.0
2016-May-25 01:20N 34°37' E 135°26'0 0.0
2016-May-24 22:08N 34°37' E 135°26'0 0.0
2016-May-24 21:20N 34°37' E 135°26'5 6.4
2016-May-24 20:33N 34°36' E 135°20'1817.6
2016-May-24 19:33N 34°37' E 134°58'13 0.4
2016-May-23 15:09N 34°33' E 134°44'1220.1
2016-May-23 14:33N 34°37' E 134°57'1818.1
2016-May-23 13:33N 34°37' E 135°19'5 4.5
2016-May-23 12:23N 34°37' E 135°26'0 0.0
2016-May-23 11:29N 34°37' E 135°26'0 0.0
2016-May-23 10:29N 34°37' E 135°26'0 0.0
2016-May-23 09:23N 34°37' E 135°26'0 0.0
2016-May-23 08:23N 34°37' E 135°26'0 0.0
2016-May-23 07:23N 34°37' E 135°26'0 0.0
2016-May-23 06:23N 34°37' E 135°26'0 0.0
2016-May-23 04:29N 34°37' E 135°26'0 0.0
2016-May-23 03:29N 34°37' E 135°26'0 0.0
2016-May-23 02:29N 34°37' E 135°26'0 0.0
2016-May-23 01:29N 34°37' E 135°26'0 0.0
2016-May-23 00:29N 34°37' E 135°26'0 0.0
2016-May-22 23:29N 34°37' E 135°26'0 0.0
2016-May-22 22:29N 34°37' E 135°26'0 0.0
2016-May-22 21:11N 34°37' E 135°26'6 8.7
2016-May-22 20:33N 34°36' E 135°19'1818.4
2016-May-22 19:33N 34°36' E 134°57'1 0.0
2016-May-21 14:33N 34°36' E 134°56'1918.8
2016-May-21 13:33N 34°36' E 135°19'6 5.8
2016-May-21 12:33N 34°37' E 135°26'0 0.0
2016-May-21 11:15N 34°37' E 135°26'0 0.0
2016-May-21 10:33N 34°37' E 135°26'0 0.0
2016-May-21 09:33N 34°37' E 135°26'0 0.0
2016-May-21 08:33N 34°37' E 135°26'0 0.0
2016-May-21 07:33N 34°37' E 135°26'0 0.0
2016-May-21 06:33N 34°37' E 135°26'0 0.0
2016-May-21 05:33N 34°37' E 135°26'0 0.0
2016-May-21 04:33N 34°37' E 135°26'0 0.0
2016-May-21 03:33N 34°37' E 135°26'0 0.0
2016-May-21 02:33N 34°37' E 135°26'0 0.0
2016-May-21 01:27N 34°37' E 135°26'0 0.0
2016-May-21 00:33N 34°37' E 135°26'0 0.0
2016-May-20 23:33N 34°37' E 135°26'0 0.0
2016-May-20 22:33N 34°37' E 135°26'0 0.0
2016-May-20 21:33N 34°37' E 135°26'6 5.7
2016-May-20 20:33N 34°36' E 135°19'1818.3
2016-May-20 19:33N 34°36' E 134°57'1 0.0
2016-May-19 14:32N 34°37' E 134°58'1818.1
2016-May-19 13:33N 34°37' E 135°19'5 4.4
2016-May-19 12:20N 34°37' E 135°26'0 0.0
2016-May-19 11:14N 34°37' E 135°26'0 0.0
2016-May-19 10:32N 34°37' E 135°26'0 0.0
2016-May-19 09:32N 34°37' E 135°26'0 0.0
2016-May-19 08:32N 34°37' E 135°26'  

Dump ship's entire track history